createdAt,value
2023-01-15T00:00:17.902Z,44.59
2023-01-15T00:00:50.154Z,44.46
2023-01-15T00:01:27.749Z,44.61
2023-01-15T00:01:59.985Z,44.63
2023-01-15T00:02:33.021Z,44.64
2023-01-15T00:03:07.951Z,44.70
2023-01-15T00:03:40.206Z,44.50
2023-01-15T00:04:15.906Z,44.46
2023-01-15T00:04:51.072Z,44.41
2023-01-15T00:05:23.340Z,44.87
2023-01-15T00:05:58.550Z,44.78
2023-01-15T00:06:31.344Z,44.52
2023-01-15T00:07:06.458Z,44.42
2023-01-15T00:07:41.333Z,44.76
2023-01-15T00:08:13.603Z,44.79
2023-01-15T00:08:48.707Z,44.75
2023-01-15T00:09:20.924Z,44.80
2023-01-15T00:09:56.027Z,44.82
2023-01-15T00:10:28.396Z,44.45
2023-01-15T00:11:03.712Z,44.53
2023-01-15T00:11:38.613Z,44.87
2023-01-15T00:12:29.495Z,44.44
2023-01-15T00:13:23.340Z,44.73
2023-01-15T00:14:14.411Z,44.84
2023-01-15T00:15:09.425Z,44.59
2023-01-15T00:16:03.986Z,44.63
2023-01-15T00:16:59.173Z,44.34
2023-01-15T00:17:51.775Z,44.74
2023-01-15T00:18:47.097Z,44.72
2023-01-15T00:19:39.680Z,44.74
2023-01-15T00:20:34.877Z,44.63
2023-01-15T00:21:28.901Z,44.63
2023-01-15T00:22:24.100Z,44.34
2023-01-15T00:23:34.071Z,44.44
2023-01-15T00:24:41.788Z,44.58
2023-01-15T00:25:49.391Z,44.67
2023-01-15T00:26:56.948Z,44.53
2023-01-15T00:27:52.223Z,44.61
2023-01-15T00:28:44.788Z,44.63
2023-01-15T00:29:40.003Z,44.50
2023-01-15T00:30:32.862Z,44.35
2023-01-15T00:31:28.352Z,44.26
2023-01-15T00:32:20.923Z,44.48
2023-01-15T00:33:16.128Z,44.14
2023-01-15T00:34:08.715Z,44.08
2023-01-15T00:35:03.967Z,44.31
2023-01-15T00:35:57.467Z,44.43
2023-01-15T00:36:52.758Z,44.41
2023-01-15T00:37:45.312Z,44.25
2023-01-15T00:38:43.086Z,44.01
2023-01-15T00:39:35.777Z,44.00
2023-01-15T00:40:31.032Z,44.48
2023-01-15T00:41:24.049Z,44.14
2023-01-15T00:42:19.855Z,44.34
2023-01-15T00:43:13.526Z,44.02
2023-01-15T00:44:08.717Z,44.50
2023-01-15T00:45:09.866Z,44.48
2023-01-15T00:46:05.994Z,44.06
2023-01-15T00:46:58.983Z,44.30
2023-01-15T00:47:54.374Z,44.00
2023-01-15T00:48:46.966Z,44.00
2023-01-15T00:49:42.111Z,44.04
2023-01-15T00:50:34.682Z,44.28
2023-01-15T00:51:29.868Z,44.19
2023-01-15T00:52:22.553Z,44.44
2023-01-15T00:53:17.895Z,44.00
2023-01-15T00:54:13.087Z,43.92
2023-01-15T00:55:09.831Z,44.16
2023-01-15T00:56:02.467Z,43.90
2023-01-15T00:56:57.703Z,43.97
2023-01-15T00:57:50.364Z,44.43
2023-01-15T00:58:46.871Z,44.18
2023-01-15T00:59:39.498Z,43.82
2023-01-15T01:00:34.991Z,43.88
2023-01-15T01:01:27.751Z,44.20
2023-01-15T01:02:23.251Z,44.06
2023-01-15T01:03:15.838Z,44.14
2023-01-15T01:04:11.064Z,43.62
2023-01-15T01:05:03.968Z,43.81
2023-01-15T01:06:00.743Z,43.89
2023-01-15T01:06:55.927Z,43.74
2023-01-15T01:07:48.514Z,44.08
2023-01-15T01:08:43.683Z,43.75
2023-01-15T01:09:38.899Z,43.45
2023-01-15T01:10:34.050Z,43.85
2023-01-15T01:11:27.091Z,43.65
2023-01-15T01:12:23.772Z,43.69
2023-01-15T01:13:16.343Z,43.82
2023-01-15T01:14:13.491Z,43.45
2023-01-15T01:15:09.947Z,43.28
2023-01-15T01:16:05.731Z,43.36
2023-01-15T01:16:58.513Z,43.70
2023-01-15T01:17:53.693Z,43.57
2023-01-15T01:18:46.259Z,43.34
2023-01-15T01:19:41.447Z,43.37
2023-01-15T01:20:34.402Z,43.09
2023-01-15T01:21:30.378Z,43.39
2023-01-15T01:22:24.739Z,43.38
2023-01-15T01:23:19.963Z,43.37
2023-01-15T01:24:13.610Z,43.04
2023-01-15T01:25:12.820Z,43.16
2023-01-15T01:26:05.822Z,43.48
2023-01-15T01:27:01.047Z,43.08
2023-01-15T01:27:54.205Z,42.83
2023-01-15T01:28:52.662Z,43.20
2023-01-15T01:29:45.423Z,42.82
2023-01-15T01:30:41.548Z,42.72
2023-01-15T01:31:34.212Z,43.15
2023-01-15T01:32:29.583Z,42.85
2023-01-15T01:33:22.567Z,42.99
2023-01-15T01:34:17.919Z,42.58
2023-01-15T01:35:10.769Z,42.87
2023-01-15T01:36:06.097Z,42.73
2023-01-15T01:36:58.765Z,42.99
2023-01-15T01:37:54.323Z,42.58
2023-01-15T01:38:49.922Z,42.84
2023-01-15T01:39:45.122Z,42.52
2023-01-15T01:40:41.696Z,42.89
2023-01-15T01:41:37.427Z,42.96
2023-01-15T01:42:30.022Z,42.67
2023-01-15T01:43:26.940Z,42.77
2023-01-15T01:44:49.494Z,42.46
2023-01-15T01:45:44.684Z,42.61
2023-01-15T01:46:37.318Z,42.27
2023-01-15T01:47:33.140Z,42.47
2023-01-15T01:48:29.102Z,42.31
2023-01-15T01:49:24.303Z,42.24
2023-01-15T01:50:17.302Z,42.31
2023-01-15T01:51:13.399Z,42.43
2023-01-15T01:52:08.729Z,42.61
2023-01-15T01:53:07.396Z,42.51
2023-01-15T01:54:01.135Z,42.32
2023-01-15T01:54:56.668Z,42.22
2023-01-15T01:55:52.117Z,42.69
2023-01-15T01:56:47.343Z,42.25
2023-01-15T01:57:40.418Z,42.38
2023-01-15T01:58:36.045Z,42.19
2023-01-15T01:59:28.692Z,42.24
2023-01-15T02:00:25.470Z,42.55
2023-01-15T02:01:18.363Z,42.38
2023-01-15T02:02:13.723Z,42.38
2023-01-15T02:03:08.163Z,42.12
2023-01-15T02:04:03.503Z,42.19
2023-01-15T02:04:56.862Z,42.35
2023-01-15T02:05:55.291Z,42.48
2023-01-15T02:06:47.932Z,42.20
2023-01-15T02:07:43.169Z,42.36
2023-01-15T02:08:39.464Z,42.04
2023-01-15T02:09:35.012Z,42.37
2023-01-15T02:10:28.320Z,42.45
2023-01-15T02:11:27.203Z,42.21
2023-01-15T02:12:24.655Z,42.22
2023-01-15T02:13:23.947Z,42.55
2023-01-15T02:14:22.495Z,42.12
2023-01-15T02:15:19.304Z,42.25
2023-01-15T02:16:16.823Z,42.41
2023-01-15T02:17:18.501Z,42.58
2023-01-15T02:18:17.658Z,42.65
2023-01-15T02:19:21.286Z,42.53
2023-01-15T02:20:22.676Z,42.33
2023-01-15T02:21:25.506Z,42.57
2023-01-15T02:22:24.172Z,42.53
2023-01-15T02:23:28.060Z,42.41
2023-01-15T02:24:24.405Z,42.63
2023-01-15T02:25:24.465Z,43.05
2023-01-15T02:26:44.606Z,42.82
2023-01-15T02:27:41.704Z,42.77
2023-01-15T02:28:35.294Z,42.94
2023-01-15T02:29:34.933Z,42.97
2023-01-15T02:30:30.975Z,42.60
2023-01-15T02:31:30.841Z,42.70
2023-01-15T02:32:29.309Z,42.63
2023-01-15T02:33:27.432Z,42.88
2023-01-15T02:34:24.102Z,42.67
2023-01-15T02:35:23.303Z,42.88
2023-01-15T02:36:17.290Z,42.85
2023-01-15T02:37:20.491Z,42.77
2023-01-15T02:38:17.702Z,42.96
2023-01-15T02:39:18.418Z,43.24
2023-01-15T02:40:12.682Z,42.75
2023-01-15T02:41:16.366Z,43.35
2023-01-15T02:42:13.102Z,43.31
2023-01-15T02:43:16.553Z,43.03
2023-01-15T02:44:11.226Z,42.82
2023-01-15T02:45:08.238Z,42.99
2023-01-15T02:46:02.125Z,43.23
2023-01-15T02:46:58.563Z,43.13
2023-01-15T02:47:53.482Z,43.12
2023-01-15T02:48:50.863Z,43.19
2023-01-15T02:49:44.715Z,43.10
2023-01-15T02:50:46.471Z,42.99
2023-01-15T02:51:41.767Z,43.32
2023-01-15T02:52:40.866Z,43.13
2023-01-15T02:53:34.595Z,42.90
2023-01-15T02:54:32.188Z,43.01
2023-01-15T02:55:27.900Z,42.81
2023-01-15T02:56:25.705Z,42.87
2023-01-15T02:57:22.687Z,43.18
2023-01-15T02:58:26.591Z,42.87
2023-01-15T02:59:23.571Z,43.04
2023-01-15T03:00:21.040Z,43.07
2023-01-15T03:01:17.218Z,43.23
2023-01-15T03:02:14.825Z,42.97
2023-01-15T03:03:11.982Z,42.75
2023-01-15T03:04:11.901Z,43.00
2023-01-15T03:05:08.946Z,42.82
2023-01-15T03:06:08.926Z,43.35
2023-01-15T03:07:06.486Z,43.02
2023-01-15T03:08:04.072Z,42.99
2023-01-15T03:09:00.218Z,43.16
2023-01-15T03:09:56.537Z,43.05
2023-01-15T03:10:53.128Z,42.83
2023-01-15T03:11:52.936Z,43.30
2023-01-15T03:13:03.078Z,43.04
2023-01-15T03:14:22.092Z,43.06
2023-01-15T03:15:39.391Z,43.00
2023-01-15T03:16:35.614Z,43.06
2023-01-15T03:17:38.065Z,43.20
2023-01-15T03:18:36.561Z,42.91
2023-01-15T03:19:37.197Z,43.19
2023-01-15T03:20:30.189Z,42.84
2023-01-15T03:21:29.993Z,42.84
2023-01-15T03:22:26.437Z,43.01
2023-01-15T03:23:22.525Z,42.94
2023-01-15T03:24:19.252Z,42.96
2023-01-15T03:25:17.326Z,43.24
2023-01-15T03:26:13.969Z,43.03
2023-01-15T03:27:11.605Z,43.08
2023-01-15T03:28:12.504Z,42.83
2023-01-15T03:29:09.991Z,42.72
2023-01-15T03:30:06.326Z,43.20
2023-01-15T03:31:02.117Z,43.04
2023-01-15T03:31:54.871Z,43.61
2023-01-15T03:32:50.512Z,43.92
2023-01-15T03:33:43.170Z,43.30
2023-01-15T03:34:48.780Z,43.02
2023-01-15T03:35:47.554Z,42.67
2023-01-15T03:36:52.270Z,42.19
2023-01-15T03:37:44.915Z,41.81
2023-01-15T03:38:41.917Z,41.66
2023-01-15T03:39:42.070Z,41.28
2023-01-15T03:40:55.730Z,40.93
2023-01-15T03:41:54.260Z,40.45
2023-01-15T03:43:15.514Z,40.56
2023-01-15T03:44:16.342Z,40.38
2023-01-15T03:45:15.907Z,39.79
2023-01-15T03:46:18.301Z,39.64
2023-01-15T03:47:23.050Z,39.02
2023-01-15T03:48:18.974Z,38.63
2023-01-15T03:49:21.621Z,38.74
2023-01-15T03:50:20.538Z,38.85
2023-01-15T03:51:21.330Z,39.19
2023-01-15T03:52:17.846Z,39.63
2023-01-15T03:53:15.202Z,40.02
2023-01-15T03:54:19.363Z,40.07
2023-01-15T03:55:19.038Z,40.53
2023-01-15T03:56:27.556Z,40.87
2023-01-15T03:57:31.202Z,40.81
2023-01-15T03:58:26.984Z,41.44
2023-01-15T03:59:26.951Z,41.45
2023-01-15T04:00:28.432Z,41.35
2023-01-15T04:01:29.953Z,41.80
2023-01-15T04:02:23.564Z,41.78
2023-01-15T04:03:21.023Z,41.73
2023-01-15T04:04:14.231Z,42.20
2023-01-15T04:05:10.428Z,42.16
2023-01-15T04:06:04.268Z,42.36
2023-01-15T04:07:00.141Z,42.15
2023-01-15T04:07:53.843Z,42.48
2023-01-15T04:08:50.608Z,42.03
2023-01-15T04:09:43.352Z,42.12
2023-01-15T04:10:40.631Z,42.29
2023-01-15T04:11:36.800Z,42.07
2023-01-15T04:12:35.550Z,42.15
2023-01-15T04:13:33.319Z,42.10
2023-01-15T04:14:33.434Z,42.18
2023-01-15T04:15:31.893Z,42.22
2023-01-15T04:16:29.729Z,42.12
2023-01-15T04:17:22.293Z,42.46
2023-01-15T04:18:17.483Z,42.57
2023-01-15T04:19:10.094Z,42.13
2023-01-15T04:20:10.123Z,42.41
2023-01-15T04:21:06.644Z,42.61
2023-01-15T04:22:03.434Z,42.33
2023-01-15T04:22:56.008Z,42.20
2023-01-15T04:23:51.413Z,42.24
2023-01-15T04:24:44.046Z,42.10
2023-01-15T04:25:39.524Z,42.40
2023-01-15T04:26:32.120Z,42.20
2023-01-15T04:27:27.460Z,42.50
2023-01-15T04:28:20.063Z,42.59
2023-01-15T04:29:15.330Z,42.22
2023-01-15T04:30:12.223Z,42.65
2023-01-15T04:31:07.785Z,42.23
2023-01-15T04:32:00.386Z,42.77
2023-01-15T04:32:55.723Z,42.65
2023-01-15T04:33:48.319Z,42.45
2023-01-15T04:34:43.543Z,42.82
2023-01-15T04:35:36.285Z,42.63
2023-01-15T04:36:35.473Z,42.67
2023-01-15T04:37:28.306Z,42.60
2023-01-15T04:38:23.488Z,42.68
2023-01-15T04:39:16.070Z,42.28
2023-01-15T04:40:32.909Z,42.78
2023-01-15T04:41:40.500Z,42.66
2023-01-15T04:42:48.079Z,42.35
2023-01-15T04:43:55.649Z,42.70
2023-01-15T04:44:48.221Z,42.26
2023-01-15T04:45:46.278Z,42.55
2023-01-15T04:46:41.300Z,42.59
2023-01-15T04:47:36.470Z,42.53
2023-01-15T04:48:29.048Z,42.11
2023-01-15T04:49:24.309Z,42.54
2023-01-15T04:50:17.334Z,42.63
2023-01-15T04:51:09.913Z,42.49
2023-01-15T04:52:05.356Z,42.30
2023-01-15T04:52:57.903Z,42.12
2023-01-15T04:53:50.563Z,42.38
2023-01-15T04:54:45.794Z,42.47
2023-01-15T04:55:38.446Z,42.58
2023-01-15T04:56:33.922Z,41.90
2023-01-15T04:57:26.526Z,42.35
2023-01-15T04:58:21.695Z,42.12
2023-01-15T04:59:14.916Z,42.38
2023-01-15T05:00:11.902Z,42.38
2023-01-15T05:01:11.804Z,42.44
2023-01-15T05:02:07.298Z,42.35
2023-01-15T05:03:00.001Z,42.31
2023-01-15T05:03:55.166Z,42.46
2023-01-15T05:04:47.859Z,42.48
2023-01-15T05:05:43.024Z,42.11
2023-01-15T05:06:35.580Z,42.60
2023-01-15T05:07:30.798Z,42.68
2023-01-15T05:08:23.698Z,42.17
2023-01-15T05:09:19.075Z,42.17
2023-01-15T05:10:11.833Z,42.36
2023-01-15T05:11:08.295Z,42.28
2023-01-15T05:12:00.883Z,42.51
2023-01-15T05:12:56.027Z,42.34
2023-01-15T05:13:48.646Z,42.14
2023-01-15T05:14:43.795Z,42.36
2023-01-15T05:15:38.582Z,42.16
2023-01-15T05:16:38.274Z,42.31
2023-01-15T05:17:32.449Z,42.17
2023-01-15T05:18:27.664Z,42.12
2023-01-15T05:19:20.256Z,42.52
2023-01-15T05:20:16.278Z,42.27
2023-01-15T05:21:15.107Z,42.46
2023-01-15T05:22:11.301Z,42.14
2023-01-15T05:23:03.881Z,42.43
2023-01-15T05:24:00.592Z,42.21
2023-01-15T05:24:53.199Z,42.53
2023-01-15T05:25:48.346Z,42.20
2023-01-15T05:26:41.285Z,42.60
2023-01-15T05:27:36.480Z,42.03
2023-01-15T05:28:29.079Z,42.49
2023-01-15T05:29:24.247Z,42.70
2023-01-15T05:30:17.672Z,42.43
2023-01-15T05:31:14.371Z,42.48
2023-01-15T05:32:12.218Z,42.37
2023-01-15T05:33:04.880Z,42.23
2023-01-15T05:34:00.537Z,42.09
2023-01-15T05:34:53.123Z,42.67
2023-01-15T05:35:48.291Z,42.48
2023-01-15T05:36:41.050Z,42.38
2023-01-15T05:37:36.237Z,42.46
2023-01-15T05:38:28.811Z,42.22
2023-01-15T05:39:23.971Z,42.79
2023-01-15T05:40:17.107Z,42.60
2023-01-15T05:41:27.427Z,42.60
2023-01-15T05:42:22.633Z,42.61
2023-01-15T05:43:15.239Z,42.50
2023-01-15T05:44:09.864Z,42.61
2023-01-15T05:45:05.105Z,42.43
2023-01-15T05:46:01.918Z,42.40
2023-01-15T05:46:59.256Z,42.30
2023-01-15T05:47:56.053Z,42.38
2023-01-15T05:48:51.279Z,42.77
2023-01-15T05:49:48.589Z,42.50
2023-01-15T05:50:41.184Z,42.65
2023-01-15T05:51:37.322Z,42.82
2023-01-15T05:52:32.519Z,42.46
2023-01-15T05:53:25.092Z,42.61
2023-01-15T05:54:21.931Z,42.36
2023-01-15T05:55:14.555Z,42.79
2023-01-15T05:56:10.731Z,42.60
2023-01-15T05:57:04.022Z,42.43
2023-01-15T05:57:59.223Z,42.60
2023-01-15T05:58:52.135Z,42.65
2023-01-15T05:59:49.407Z,42.67
2023-01-15T06:00:42.107Z,42.62
2023-01-15T06:01:37.647Z,42.53
2023-01-15T06:02:30.302Z,42.38
2023-01-15T06:03:29.530Z,42.78
2023-01-15T06:04:23.158Z,42.86
2023-01-15T06:05:20.254Z,42.46
2023-01-15T06:06:14.243Z,42.54
2023-01-15T06:07:09.387Z,42.55
2023-01-15T06:08:01.983Z,42.87
2023-01-15T06:08:57.132Z,42.79
2023-01-15T06:09:49.764Z,42.73
2023-01-15T06:10:47.748Z,42.87
2023-01-15T06:11:40.653Z,42.64
2023-01-15T06:12:35.895Z,42.50
2023-01-15T06:13:28.506Z,42.68
2023-01-15T06:14:23.692Z,42.95
2023-01-15T06:15:16.466Z,42.65
2023-01-15T06:16:11.104Z,42.57
2023-01-15T06:17:06.320Z,42.52
2023-01-15T06:17:58.921Z,42.51
2023-01-15T06:18:58.197Z,42.85
2023-01-15T06:19:50.802Z,42.82
2023-01-15T06:20:45.967Z,42.58
2023-01-15T06:21:38.615Z,42.70
2023-01-15T06:22:33.772Z,42.65
2023-01-15T06:23:26.375Z,42.43
2023-01-15T06:24:21.701Z,42.82
2023-01-15T06:25:14.574Z,42.64
2023-01-15T06:26:10.870Z,42.90
2023-01-15T06:27:06.062Z,42.70
2023-01-15T06:27:58.962Z,42.88
2023-01-15T06:28:54.546Z,42.87
2023-01-15T06:29:47.104Z,42.46
2023-01-15T06:30:42.848Z,42.46
2023-01-15T06:31:35.522Z,42.32
2023-01-15T06:32:30.734Z,42.73
2023-01-15T06:33:23.379Z,42.82
2023-01-15T06:34:21.173Z,42.46
2023-01-15T06:35:14.598Z,42.31
2023-01-15T06:36:12.108Z,42.61
2023-01-15T06:37:04.675Z,42.50
2023-01-15T06:37:59.829Z,42.40
2023-01-15T06:38:52.413Z,42.64
2023-01-15T06:39:47.600Z,42.28
2023-01-15T06:40:40.407Z,42.38
2023-01-15T06:41:48.003Z,42.80
2023-01-15T06:42:55.606Z,42.54
2023-01-15T06:44:03.155Z,42.65
2023-01-15T06:45:10.750Z,42.29
2023-01-15T06:46:20.844Z,42.77
2023-01-15T06:47:24.805Z,42.67
2023-01-15T06:48:19.140Z,42.29
2023-01-15T06:49:14.297Z,42.50
2023-01-15T06:50:11.072Z,42.82
2023-01-15T06:51:06.330Z,42.70
2023-01-15T06:51:59.021Z,42.38
2023-01-15T06:52:54.375Z,42.77
2023-01-15T06:53:47.275Z,42.73
2023-01-15T06:54:42.475Z,42.62
2023-01-15T06:55:35.064Z,42.74
2023-01-15T06:56:30.239Z,42.19
2023-01-15T06:57:22.862Z,42.55
2023-01-15T06:58:18.123Z,42.53
2023-01-15T06:59:12.551Z,42.43
2023-01-15T07:00:08.640Z,42.35
2023-01-15T07:01:01.337Z,42.38
2023-01-15T07:01:56.647Z,42.72
2023-01-15T07:02:50.245Z,42.23
2023-01-15T07:03:45.745Z,42.89
2023-01-15T07:04:38.384Z,42.47
2023-01-15T07:05:36.131Z,42.41
2023-01-15T07:06:28.709Z,42.94
2023-01-15T07:07:24.359Z,42.82
2023-01-15T07:08:16.968Z,42.61
2023-01-15T07:09:12.209Z,42.53
2023-01-15T07:10:05.616Z,42.68
2023-01-15T07:11:05.498Z,42.68
2023-01-15T07:11:58.790Z,42.88
2023-01-15T07:12:53.959Z,42.55
2023-01-15T07:13:46.576Z,43.05
2023-01-15T07:14:41.825Z,42.63
2023-01-15T07:15:35.116Z,42.54
2023-01-15T07:16:30.543Z,42.95
2023-01-15T07:17:23.109Z,42.55
2023-01-15T07:18:18.258Z,42.94
2023-01-15T07:19:10.870Z,42.66
2023-01-15T07:20:08.646Z,42.79
2023-01-15T07:21:04.021Z,42.62
2023-01-15T07:21:59.272Z,42.91
2023-01-15T07:22:52.594Z,42.62
2023-01-15T07:23:47.807Z,42.65
2023-01-15T07:24:40.371Z,42.96
2023-01-15T07:25:35.534Z,42.83
2023-01-15T07:26:28.431Z,42.95
2023-01-15T07:27:23.595Z,43.08
2023-01-15T07:28:16.155Z,42.59
2023-01-15T07:29:11.450Z,42.70
2023-01-15T07:30:04.706Z,42.82
2023-01-15T07:31:01.543Z,42.94
2023-01-15T07:31:54.296Z,42.80
2023-01-15T07:32:49.465Z,42.70
2023-01-15T07:33:42.036Z,42.89
2023-01-15T07:34:37.263Z,42.65
2023-01-15T07:35:31.179Z,42.70
2023-01-15T07:36:29.036Z,43.08
2023-01-15T07:37:21.587Z,43.08
2023-01-15T07:38:16.737Z,42.68
2023-01-15T07:39:11.098Z,42.65
2023-01-15T07:40:06.772Z,42.82
2023-01-15T07:41:14.836Z,43.10
2023-01-15T07:42:24.591Z,42.86
2023-01-15T07:43:32.205Z,42.92
2023-01-15T07:44:39.943Z,42.78
2023-01-15T07:45:47.682Z,42.66
2023-01-15T07:46:55.482Z,42.82
2023-01-15T07:48:03.042Z,43.07
2023-01-15T07:49:22.346Z,43.03
2023-01-15T07:50:19.855Z,42.89
2023-01-15T07:51:12.474Z,42.90
2023-01-15T07:52:10.391Z,43.12
2023-01-15T07:53:05.557Z,42.77
2023-01-15T07:53:58.132Z,43.03
2023-01-15T07:54:53.603Z,42.96
2023-01-15T07:55:46.158Z,43.06
2023-01-15T07:56:41.727Z,43.11
2023-01-15T07:57:34.831Z,43.13
2023-01-15T07:58:30.002Z,42.97
2023-01-15T07:59:22.948Z,42.98
2023-01-15T08:00:23.311Z,42.88
2023-01-15T08:01:16.194Z,43.10
2023-01-15T08:02:12.180Z,42.94
2023-01-15T08:03:04.751Z,42.78
2023-01-15T08:03:59.946Z,42.94
2023-01-15T08:04:52.585Z,42.75
2023-01-15T08:05:47.734Z,42.89
2023-01-15T08:06:40.330Z,42.87
2023-01-15T08:07:42.301Z,42.98
2023-01-15T08:08:34.877Z,43.03
2023-01-15T08:09:30.425Z,42.95
2023-01-15T08:10:23.062Z,42.90
2023-01-15T08:11:30.594Z,43.14
2023-01-15T08:12:38.165Z,43.17
2023-01-15T08:13:45.923Z,43.08
2023-01-15T08:14:53.556Z,43.25
2023-01-15T08:15:48.719Z,43.22
2023-01-15T08:16:41.314Z,43.23
2023-01-15T08:17:36.662Z,42.91
2023-01-15T08:18:29.214Z,43.25
2023-01-15T08:19:25.255Z,43.12
2023-01-15T08:20:22.631Z,43.19
2023-01-15T08:21:15.728Z,43.33
2023-01-15T08:22:13.474Z,43.40
2023-01-15T08:23:10.758Z,43.30
2023-01-15T08:24:06.033Z,43.22
2023-01-15T08:24:58.677Z,43.30
2023-01-15T08:25:53.854Z,42.93
2023-01-15T08:26:46.434Z,43.13
2023-01-15T08:27:42.237Z,43.19
2023-01-15T08:28:34.851Z,43.27
2023-01-15T08:29:30.862Z,43.16
2023-01-15T08:30:28.450Z,42.93
2023-01-15T08:31:21.089Z,43.18
2023-01-15T08:32:16.263Z,42.97
2023-01-15T08:33:11.424Z,43.12
2023-01-15T08:34:04.068Z,43.11
2023-01-15T08:34:59.245Z,42.95
2023-01-15T08:35:51.833Z,43.34
2023-01-15T08:36:47.004Z,42.99
2023-01-15T08:37:39.804Z,42.87
2023-01-15T08:38:37.591Z,42.98
2023-01-15T08:39:30.420Z,43.30
2023-01-15T08:40:25.652Z,43.10
2023-01-15T08:41:18.379Z,42.82
2023-01-15T08:42:13.614Z,42.84
2023-01-15T08:43:06.176Z,42.89
2023-01-15T08:44:01.616Z,43.17
2023-01-15T08:44:54.284Z,43.16
2023-01-15T08:45:49.481Z,43.40
2023-01-15T08:46:42.109Z,42.94
2023-01-15T08:47:37.510Z,42.99
2023-01-15T08:48:31.235Z,43.30
2023-01-15T08:49:26.459Z,43.37
2023-01-15T08:50:19.239Z,43.17
2023-01-15T08:51:15.478Z,42.94
2023-01-15T08:52:08.119Z,43.13
2023-01-15T08:53:03.266Z,42.82
2023-01-15T08:53:58.499Z,42.78
2023-01-15T08:54:53.655Z,42.83
2023-01-15T08:55:46.427Z,42.89
2023-01-15T08:56:41.648Z,43.13
2023-01-15T08:57:37.768Z,43.30
2023-01-15T08:58:31.259Z,42.89
2023-01-15T08:59:26.452Z,43.04
2023-01-15T09:00:19.998Z,43.11
2023-01-15T09:01:16.388Z,43.29
2023-01-15T09:02:11.998Z,43.06
2023-01-15T09:03:07.412Z,43.13
2023-01-15T09:04:00.091Z,43.41
2023-01-15T09:04:55.433Z,43.42
2023-01-15T09:05:48.054Z,43.05
2023-01-15T09:06:43.493Z,43.32
2023-01-15T09:07:37.376Z,43.28
2023-01-15T09:08:32.987Z,43.28
2023-01-15T09:09:28.258Z,43.14
2023-01-15T09:10:23.619Z,43.18
2023-01-15T09:11:16.201Z,43.19
2023-01-15T09:12:11.759Z,43.45
2023-01-15T09:13:05.002Z,43.06
2023-01-15T09:14:00.149Z,43.25
2023-01-15T09:15:01.238Z,43.08
2023-01-15T09:15:59.376Z,43.17
2023-01-15T09:16:54.588Z,43.60
2023-01-15T09:17:47.167Z,43.54
2023-01-15T09:18:43.422Z,43.57
2023-01-15T09:19:35.979Z,43.45
2023-01-15T09:20:33.459Z,43.52
2023-01-15T09:21:26.659Z,43.49
2023-01-15T09:22:21.849Z,43.35
2023-01-15T09:23:14.527Z,43.33
2023-01-15T09:24:10.534Z,43.22
2023-01-15T09:25:06.947Z,43.56
2023-01-15T09:26:05.315Z,43.29
2023-01-15T09:26:57.894Z,43.59
2023-01-15T09:27:53.166Z,43.32
2023-01-15T09:28:45.729Z,43.61
2023-01-15T09:29:40.892Z,43.72
2023-01-15T09:30:33.725Z,43.73
2023-01-15T09:31:29.286Z,43.34
2023-01-15T09:32:22.000Z,43.45
2023-01-15T09:33:17.251Z,43.62
2023-01-15T09:34:10.875Z,43.71
2023-01-15T09:35:06.090Z,43.93
2023-01-15T09:35:58.684Z,43.79
2023-01-15T09:36:53.879Z,43.67
2023-01-15T09:37:51.506Z,43.70
2023-01-15T09:38:46.747Z,43.54
2023-01-15T09:39:39.393Z,43.56
2023-01-15T09:40:47.119Z,43.82
2023-01-15T09:42:08.427Z,43.65
2023-01-15T09:43:09.426Z,45.01
2023-01-15T09:44:14.425Z,44.37
2023-01-15T09:45:18.284Z,44.06
2023-01-15T09:46:14.508Z,44.05
2023-01-15T09:47:12.939Z,43.47
2023-01-15T09:48:19.184Z,43.24
2023-01-15T09:49:19.190Z,43.01
2023-01-15T09:50:25.527Z,43.00
2023-01-15T09:51:26.172Z,42.55
2023-01-15T09:52:26.955Z,43.57
2023-01-15T09:53:44.451Z,43.00
2023-01-15T09:54:56.963Z,42.12
2023-01-15T09:55:52.817Z,41.93
2023-01-15T09:56:48.447Z,42.22
2023-01-15T09:57:41.603Z,41.83
2023-01-15T09:58:38.578Z,41.95
2023-01-15T09:59:34.959Z,41.99
2023-01-15T10:00:32.895Z,41.52
2023-01-15T10:01:30.155Z,41.82
2023-01-15T10:02:27.536Z,41.78
2023-01-15T10:03:32.057Z,41.24
2023-01-15T10:04:34.251Z,41.44
2023-01-15T10:05:32.509Z,41.58
2023-01-15T10:06:30.544Z,41.32
2023-01-15T10:07:27.187Z,41.29
2023-01-15T10:08:25.361Z,41.27
2023-01-15T10:09:22.126Z,41.16
2023-01-15T10:10:21.198Z,41.51
2023-01-15T10:11:49.614Z,41.36
2023-01-15T10:12:48.335Z,41.17
2023-01-15T10:13:44.957Z,40.83
2023-01-15T10:14:45.809Z,41.34
2023-01-15T10:15:44.455Z,40.93
2023-01-15T10:16:37.217Z,41.10
2023-01-15T10:17:35.319Z,41.29
2023-01-15T10:18:31.369Z,41.21
2023-01-15T10:19:24.924Z,41.14
2023-01-15T10:20:32.343Z,41.32
2023-01-15T10:21:31.573Z,40.85
2023-01-15T10:22:38.265Z,41.10
2023-01-15T10:23:36.037Z,40.91
2023-01-15T10:24:37.945Z,41.28
2023-01-15T10:25:35.892Z,41.08
2023-01-15T10:26:39.783Z,41.03
2023-01-15T10:27:33.565Z,41.03
2023-01-15T10:28:32.533Z,40.78
2023-01-15T10:29:35.304Z,40.98
2023-01-15T10:30:34.113Z,41.14
2023-01-15T10:31:48.490Z,41.04
2023-01-15T10:33:01.498Z,41.23
2023-01-15T10:34:09.761Z,41.11
2023-01-15T10:35:24.520Z,40.88
2023-01-15T10:36:23.301Z,41.21
2023-01-15T10:37:20.135Z,41.18
2023-01-15T10:38:20.491Z,40.79
2023-01-15T10:39:18.774Z,40.99
2023-01-15T10:40:30.782Z,40.83
2023-01-15T10:41:39.407Z,41.05
2023-01-15T10:42:40.951Z,41.12
2023-01-15T10:43:45.837Z,40.67
2023-01-15T10:44:44.324Z,41.03
2023-01-15T10:45:43.476Z,41.08
2023-01-15T10:46:40.856Z,40.86
2023-01-15T10:47:35.423Z,40.91
2023-01-15T10:48:34.145Z,41.12
2023-01-15T10:49:29.379Z,40.85
2023-01-15T10:50:26.277Z,40.84
2023-01-15T10:51:20.481Z,40.84
2023-01-15T10:52:25.657Z,41.05
2023-01-15T10:53:26.017Z,40.83
2023-01-15T10:54:27.383Z,40.54
2023-01-15T10:55:24.206Z,40.64
2023-01-15T10:56:29.007Z,40.62
2023-01-15T10:57:29.358Z,40.71
2023-01-15T10:58:30.881Z,40.61
2023-01-15T10:59:28.280Z,40.86
2023-01-15T11:00:24.699Z,40.95
2023-01-15T11:01:19.883Z,40.89
2023-01-15T11:02:25.881Z,41.00
2023-01-15T11:03:22.308Z,40.61
2023-01-15T11:04:17.523Z,40.66
2023-01-15T11:05:13.001Z,41.06
2023-01-15T11:06:11.711Z,41.18
2023-01-15T11:07:07.408Z,41.02
2023-01-15T11:08:34.404Z,40.71
2023-01-15T11:09:21.985Z,40.78
2023-01-15T11:10:16.721Z,41.07
2023-01-15T11:11:20.847Z,41.13
2023-01-15T11:12:35.758Z,40.95
2023-01-15T11:13:46.006Z,41.39
2023-01-15T11:14:55.073Z,40.23
2023-01-15T11:16:04.195Z,40.71
2023-01-15T11:17:12.003Z,42.70
2023-01-15T11:18:27.834Z,42.44
2023-01-15T11:19:42.695Z,41.29
2023-01-15T11:20:40.086Z,41.56
2023-01-15T11:21:32.839Z,41.25
2023-01-15T11:22:28.858Z,41.20
2023-01-15T11:23:22.091Z,41.38
2023-01-15T11:24:18.818Z,41.42
2023-01-15T11:25:11.493Z,41.56
2023-01-15T11:26:07.666Z,41.25
2023-01-15T11:27:00.258Z,41.25
2023-01-15T11:27:55.544Z,41.34
2023-01-15T11:28:53.565Z,41.16
2023-01-15T11:29:51.767Z,40.83
2023-01-15T11:30:56.451Z,40.79
2023-01-15T11:31:49.192Z,41.01
2023-01-15T11:32:44.407Z,41.24
2023-01-15T11:33:38.463Z,41.75
2023-01-15T11:34:33.794Z,40.93
2023-01-15T11:35:27.054Z,41.45
2023-01-15T11:36:26.460Z,41.00
2023-01-15T11:37:19.046Z,41.23
2023-01-15T11:38:17.238Z,41.34
2023-01-15T11:39:26.754Z,41.10
2023-01-15T11:40:24.677Z,40.96
2023-01-15T11:41:21.572Z,41.15
2023-01-15T11:42:31.988Z,40.06
2023-01-15T11:43:41.551Z,40.61
2023-01-15T11:44:53.058Z,40.86
2023-01-15T11:46:04.987Z,40.95
2023-01-15T11:47:12.611Z,41.51
2023-01-15T11:48:29.704Z,41.53
2023-01-15T11:49:37.510Z,42.03
2023-01-15T11:50:48.200Z,42.04
2023-01-15T11:51:43.042Z,42.35
2023-01-15T11:52:40.566Z,42.28
2023-01-15T11:53:34.826Z,42.77
2023-01-15T11:54:30.633Z,42.53
2023-01-15T11:55:26.075Z,42.65
2023-01-15T11:56:23.416Z,42.89
2023-01-15T11:57:25.501Z,42.85
2023-01-15T11:58:20.763Z,43.08
2023-01-15T11:59:14.904Z,43.27
2023-01-15T12:00:23.463Z,43.32
2023-01-15T12:01:22.917Z,44.36
2023-01-15T12:02:24.111Z,44.32
2023-01-15T12:03:20.154Z,44.32
2023-01-15T12:04:30.168Z,43.48
2023-01-15T12:05:25.637Z,43.04
2023-01-15T12:06:22.832Z,42.83
2023-01-15T12:07:15.946Z,42.63
2023-01-15T12:08:22.383Z,41.85